Time;durP1;ratioP1;P1;durP2;ratioP2;P2;SDS_P1;SDS_P2;PMS_P1;PMS_P2;Temp;Humidity;BMP_temperature;BMP_pressure;BME280_temperature;BME280_humidity;BME280_pressure;Samples;Min_cycle;Max_cycle;Signal;HPM_P1;HPM_P2
2022/09/16 00:01:48;;;;;;;3.93;1.60;;;11.70;99.90;;;;;;5037968;28;20586;-62
2022/09/16 00:04:16;;;;;;;1.43;0.90;;;11.70;99.90;;;;;;5029453;28;20207;-62
2022/09/16 00:06:41;;;;;;;3.10;0.87;;;11.60;99.90;;;;;;5027717;28;20203;-62
2022/09/16 00:09:08;;;;;;;3.10;1.00;;;11.60;99.90;;;;;;5030884;28;20204;-62
2022/09/16 00:11:33;;;;;;;1.23;1.13;;;11.60;99.90;;;;;;5031540;28;20670;-62
2022/09/16 00:13:59;;;;;;;2.83;1.40;;;11.50;99.90;;;;;;5026543;28;20227;-64
2022/09/16 00:16:27;;;;;;;2.07;1.10;;;11.50;99.90;;;;;;5024506;28;20219;-67
2022/09/16 00:18:58;;;;;;;2.27;1.13;;;11.50;99.90;;;;;;5022168;28;20211;-62
2022/09/16 00:21:24;;;;;;;1.83;1.23;;;11.40;99.90;;;;;;5029644;28;20207;-62
2022/09/16 00:23:50;;;;;;;3.17;1.00;;;11.40;99.90;;;;;;5026763;28;20208;-64
2022/09/16 00:26:15;;;;;;;5.73;1.10;;;11.40;99.90;;;;;;5030495;28;20251;-62
2022/09/16 00:28:42;;;;;;;1.97;1.10;;;11.40;99.90;;;;;;5035783;28;20196;-66
2022/09/16 00:31:08;;;;;;;5.63;1.07;;;11.40;99.90;;;;;;5012786;28;20693;-63
2022/09/16 00:33:33;;;;;;;2.10;1.00;;;11.40;99.90;;;;;;5034305;28;20229;-64
2022/09/16 00:36:07;;;;;;;2.50;1.10;;;11.30;99.90;;;;;;5024743;28;20186;-63
2022/09/16 00:38:33;;;;;;;3.60;1.40;;;11.30;99.90;;;;;;5026343;28;20198;-63
2022/09/16 00:40:58;;;;;;;1.90;1.57;;;11.30;99.90;;;;;;5013832;28;20201;-63
2022/09/16 00:43:24;;;;;;;1.90;1.30;;;11.30;99.90;;;;;;5022533;28;20220;-63
2022/09/16 00:45:58;;;;;;;1.63;1.10;;;11.30;99.90;;;;;;5010358;28;20267;-66
2022/09/16 00:48:26;;;;;;;1.63;0.90;;;11.30;99.90;;;;;;5024263;28;20209;-64
2022/09/16 00:50:57;;;;;;;2.83;1.07;;;11.20;99.90;;;;;;5030052;28;20320;-63
2022/09/16 00:53:28;;;;;;;2.60;1.17;;;11.20;99.90;;;;;;5017106;28;20220;-64
2022/09/16 00:55:57;;;;;;;3.27;1.43;;;11.20;99.90;;;;;;5018486;28;20225;-64
2022/09/16 00:58:41;;;;;;;2.57;1.17;;;11.20;99.90;;;;;;5026373;28;20647;-63
2022/09/16 01:01:07;;;;;;;1.03;0.90;;;11.10;99.90;;;;;;5027644;28;20565;-65
2022/09/16 01:03:38;;;;;;;2.50;1.30;;;11.10;99.90;;;;;;5040728;28;20201;-64
2022/09/16 01:06:05;;;;;;;1.40;0.90;;;11.10;99.90;;;;;;5018731;28;20381;-65
2022/09/16 01:08:31;;;;;;;4.03;1.20;;;11.10;99.90;;;;;;5029413;28;20204;-64
2022/09/16 01:10:56;;;;;;;2.90;1.00;;;11.10;99.90;;;;;;5015268;28;20225;-64
2022/09/16 01:13:22;;;;;;;2.67;1.27;;;11.10;99.90;;;;;;5041195;28;20193;-65
2022/09/16 01:15:57;;;;;;;1.93;1.10;;;11.00;99.90;;;;;;5032717;28;20654;-65
2022/09/16 01:18:39;;;;;;;2.90;1.30;;;11.00;99.90;;;;;;5018732;28;20219;-65
2022/09/16 01:21:19;;;;;;;2.70;0.90;;;11.00;99.90;;;;;;5011761;28;20200;-67
2022/09/16 01:24:18;;;;;;;1.60;1.40;;;11.00;99.90;;;;;;5010837;28;20697;-66
2022/09/16 01:26:49;;;;;;;1.57;0.90;;;11.00;99.90;;;;;;5026185;28;20201;-66
2022/09/16 01:29:57;;;;;;;3.03;1.20;;;11.00;99.90;;;;;;5015024;28;20670;-68
2022/09/16 01:32:37;;;;;;;2.83;1.40;;;11.00;99.90;;;;;;5025837;28;20252;-65
2022/09/16 01:35:23;;;;;;;2.53;1.40;;;10.90;99.90;;;;;;5021343;28;20192;-64
2022/09/16 01:38:15;;;;;;;3.70;1.73;;;10.90;99.90;;;;;;5027308;28;20240;-64
2022/09/16 01:40:53;;;;;;;1.40;1.30;;;10.90;99.90;;;;;;5015929;28;20874;-65
2022/09/16 01:43:37;;;;;;;2.30;1.40;;;10.90;99.90;;;;;;5019160;28;20201;-63
2022/09/16 01:46:16;;;;;;;1.50;1.40;;;10.80;99.90;;;;;;5015790;28;20278;-63
2022/09/16 01:48:51;;;;;;;2.57;1.13;;;10.80;99.90;;;;;;5009649;28;20231;-63
2022/09/16 01:51:30;;;;;;;1.63;1.30;;;10.80;99.90;;;;;;5021230;28;20808;-65
2022/09/16 01:54:07;;;;;;;4.40;1.63;;;10.80;99.90;;;;;;5015990;28;20241;-64
2022/09/16 01:56:55;;;;;;;2.53;1.83;;;10.80;99.90;;;;;;5026751;28;20193;-64
2022/09/16 01:59:43;;;;;;;3.70;1.77;;;10.70;99.90;;;;;;5014008;28;20232;-64
2022/09/16 02:02:22;;;;;;;3.20;1.70;;;10.70;99.90;;;;;;5015096;28;20204;-64
2022/09/16 02:04:53;;;;;;;2.40;1.20;;;10.70;99.90;;;;;;5018003;28;20204;-64
2022/09/16 02:07:24;;;;;;;3.30;1.47;;;10.70;99.90;;;;;;5012659;28;20201;-63
2022/09/16 02:09:54;;;;;;;1.37;1.27;;;10.70;99.90;;;;;;5016179;28;20246;-64
2022/09/16 02:12:25;;;;;;;3.57;1.83;;;10.70;99.90;;;;;;5012285;28;20208;-64
2022/09/16 02:14:55;;;;;;;1.50;1.40;;;10.70;99.90;;;;;;5016351;28;20256;-64
2022/09/16 02:17:25;;;;;;;2.57;1.57;;;10.70;99.90;;;;;;5008241;28;20280;-64
2022/09/16 02:20:13;;;;;;;5.97;2.07;;;10.70;99.90;;;;;;5032096;28;20261;-64
2022/09/16 02:22:46;;;;;;;5.70;1.67;;;10.70;99.90;;;;;;5022585;28;20192;-64
2022/09/16 02:25:14;;;;;;;5.30;1.97;;;10.70;99.90;;;;;;5020684;28;20243;-64
2022/09/16 02:27:42;;;;;;;3.60;2.03;;;10.60;99.90;;;;;;5026427;28;20187;-64
2022/09/16 02:30:13;;;;;;;7.10;1.90;;;10.60;99.90;;;;;;5028968;28;20216;-66
2022/09/16 02:32:42;;;;;;;4.27;1.83;;;10.60;99.90;;;;;;5011496;28;20270;-64
2022/09/16 02:35:11;;;;;;;3.27;1.80;;;10.60;99.90;;;;;;5017164;28;20686;-64
2022/09/16 02:37:44;;;;;;;4.67;1.70;;;10.60;99.90;;;;;;5029446;28;20228;-64
2022/09/16 02:40:15;;;;;;;3.63;1.83;;;10.60;99.90;;;;;;5016974;28;20266;-64
2022/09/16 02:42:41;;;;;;;3.07;2.10;;;10.60;99.90;;;;;;5017995;28;20191;-65
2022/09/16 02:45:07;;;;;;;4.97;2.30;;;10.60;99.90;;;;;;5028109;28;20211;-64
2022/09/16 02:47:56;;;;;;;4.60;1.90;;;10.60;99.90;;;;;;5038776;28;20204;-64
2022/09/16 02:50:39;;;;;;;3.30;2.10;;;10.60;99.90;;;;;;5023295;28;20228;-65
2022/09/16 02:53:30;;;;;;;3.07;2.00;;;10.60;99.90;;;;;;5017026;28;20298;-64
2022/09/16 02:56:01;;;;;;;3.17;2.30;;;10.60;99.90;;;;;;5011844;28;20196;-64
2022/09/16 02:58:28;;;;;;;2.80;1.87;;;10.50;99.90;;;;;;5016003;28;20241;-65
2022/09/16 03:00:57;;;;;;;2.80;1.70;;;10.50;99.90;;;;;;5011476;28;20206;-64
2022/09/16 03:03:22;;;;;;;2.43;2.30;;;10.50;99.90;;;;;;5032318;28;20198;-64
2022/09/16 03:06:13;;;;;;;5.93;2.67;;;10.50;99.90;;;;;;5015109;28;20204;-64
2022/09/16 03:08:39;;;;;;;2.73;2.10;;;10.50;99.90;;;;;;5019069;28;20199;-64
2022/09/16 03:11:22;;;;;;;3.03;2.73;;;10.60;99.90;;;;;;5018766;28;20241;-64
2022/09/16 03:13:59;;;;;;;4.33;2.10;;;10.60;99.90;;;;;;5016420;28;20197;-64
2022/09/16 03:16:41;;;;;;;3.60;1.80;;;10.60;99.90;;;;;;5019243;28;20184;-64
2022/09/16 03:19:19;;;;;;;3.37;1.83;;;10.60;99.90;;;;;;5022383;28;20203;-64
2022/09/16 03:22:09;;;;;;;3.27;2.10;;;10.60;99.90;;;;;;5025327;28;20264;-63
2022/09/16 03:24:55;;;;;;;5.20;2.63;;;10.60;99.90;;;;;;5012035;28;20204;-64
2022/09/16 03:27:30;;;;;;;4.33;2.27;;;10.60;99.90;;;;;;5014590;28;20201;-64
2022/09/16 03:30:07;;;;;;;7.27;2.73;;;10.50;99.90;;;;;;5017552;28;20541;-64
2022/09/16 03:32:48;;;;;;;4.13;2.40;;;10.50;99.90;;;;;;5024249;28;20312;-64
2022/09/16 03:35:30;;;;;;;2.70;2.27;;;10.50;99.90;;;;;;5013203;28;20209;-64
2022/09/16 03:37:58;;;;;;;4.07;2.20;;;10.50;99.90;;;;;;5035148;28;20219;-64
2022/09/16 03:40:24;;;;;;;2.27;2.07;;;10.50;99.90;;;;;;5026364;28;20211;-64
2022/09/16 03:42:49;;;;;;;4.83;2.53;;;10.50;99.90;;;;;;5043733;28;20665;-64
2022/09/16 03:45:18;;;;;;;6.57;2.83;;;10.40;99.90;;;;;;5023935;28;20201;-64
2022/09/16 03:47:46;;;;;;;7.13;3.13;;;10.40;99.90;;;;;;5039982;28;20195;-64
2022/09/16 03:50:13;;;;;;;2.63;2.43;;;10.40;99.90;;;;;;5036580;28;20215;-64
2022/09/16 03:52:38;;;;;;;3.63;2.83;;;10.40;99.90;;;;;;5037435;28;20255;-64
2022/09/16 03:55:05;;;;;;;8.67;3.00;;;10.40;99.90;;;;;;5027865;28;20318;-63
2022/09/16 03:57:31;;;;;;;3.93;2.93;;;10.40;99.90;;;;;;5037643;28;20200;-62
2022/09/16 03:59:56;;;;;;;2.70;2.50;;;10.40;99.90;;;;;;5028034;28;20200;-62
2022/09/16 04:02:21;;;;;;;3.03;2.63;;;10.40;99.90;;;;;;5026720;28;20571;-63
2022/09/16 04:04:47;;;;;;;3.47;2.30;;;10.40;99.90;;;;;;5033011;28;20355;-63
2022/09/16 04:07:12;;;;;;;6.03;3.20;;;10.40;99.90;;;;;;5027746;28;20237;-63
2022/09/16 04:09:38;;;;;;;6.63;3.07;;;10.40;99.90;;;;;;5034096;28;20205;-63
2022/09/16 04:12:06;;;;;;;4.13;2.50;;;10.30;99.90;;;;;;5024435;28;20225;-63
2022/09/16 04:14:32;;;;;;;6.30;2.87;;;10.30;99.90;;;;;;5035886;28;20211;-63
2022/09/16 04:16:57;;;;;;;5.07;2.97;;;10.30;99.90;;;;;;5025143;28;20176;-62
2022/09/16 04:19:23;;;;;;;3.70;2.80;;;10.20;99.90;;;;;;5024140;28;20282;-63
2022/09/16 04:21:49;;;;;;;9.00;3.03;;;10.20;99.90;;;;;;5011998;28;20189;-62
2022/09/16 04:24:14;;;;;;;5.40;3.27;;;10.20;99.90;;;;;;5025029;28;20220;-62
2022/09/16 04:26:42;;;;;;;8.27;3.23;;;10.20;99.90;;;;;;5015355;28;20193;-62
2022/09/16 04:29:07;;;;;;;3.97;3.67;;;10.20;99.90;;;;;;5025264;28;20207;-62
2022/09/16 04:31:33;;;;;;;5.87;3.07;;;10.20;99.90;;;;;;5028403;28;20215;-62
2022/09/16 04:34:03;;;;;;;6.70;3.30;;;10.20;99.90;;;;;;5027496;28;20292;-62
2022/09/16 04:36:29;;;;;;;4.40;3.00;;;10.10;99.90;;;;;;5018459;28;20190;-61
2022/09/16 04:38:54;;;;;;;6.60;3.40;;;10.10;99.90;;;;;;5031254;28;20198;-62
2022/09/16 04:41:23;;;;;;;6.30;3.53;;;10.10;99.90;;;;;;5028193;28;20634;-63
2022/09/16 04:43:56;;;;;;;4.90;2.83;;;10.10;99.90;;;;;;5030608;28;20798;-63
2022/09/16 04:46:23;;;;;;;4.70;3.30;;;10.10;99.90;;;;;;5023307;28;20197;-62
2022/09/16 04:48:50;;;;;;;6.67;3.07;;;10.20;99.90;;;;;;5034256;28;20216;-63
2022/09/16 04:51:16;;;;;;;5.70;3.13;;;10.20;99.90;;;;;;5026121;28;20239;-62
2022/09/16 04:53:42;;;;;;;5.87;2.63;;;10.20;99.90;;;;;;5035019;28;20282;-62
2022/09/16 04:56:14;;;;;;;4.37;3.30;;;10.20;99.90;;;;;;5025249;28;20193;-62
2022/09/16 04:58:40;;;;;;;4.83;2.83;;;10.20;99.90;;;;;;5040410;28;20216;-62
2022/09/16 05:01:11;;;;;;;6.77;2.40;;;10.20;99.90;;;;;;5020591;28;20215;-62
2022/09/16 05:03:40;;;;;;;4.87;3.03;;;10.20;99.90;;;;;;5027855;28;20200;-62
2022/09/16 05:06:08;;;;;;;7.33;2.50;;;10.20;99.90;;;;;;5027603;28;20551;-62
2022/09/16 05:08:34;;;;;;;4.73;2.87;;;10.30;99.90;;;;;;5040353;28;20236;-62
2022/09/16 05:11:08;;;;;;;4.33;2.27;;;10.30;99.90;;;;;;5024173;28;20943;-62
2022/09/16 05:13:34;;;;;;;2.83;2.60;;;10.30;99.90;;;;;;5031625;28;20697;-62
2022/09/16 05:16:10;;;;;;;5.37;2.53;;;10.30;99.90;;;;;;5028036;28;20196;-62
2022/09/16 05:18:37;;;;;;;3.10;2.37;;;10.30;99.90;;;;;;5022597;28;20207;-63
2022/09/16 05:21:05;;;;;;;3.77;2.63;;;10.30;99.90;;;;;;5027717;28;20742;-62
2022/09/16 05:23:32;;;;;;;5.67;2.87;;;10.30;99.90;;;;;;5036414;28;20204;-62
2022/09/16 05:26:07;;;;;;;6.13;3.10;;;10.40;99.90;;;;;;5020779;28;20213;-62
2022/09/16 05:28:34;;;;;;;8.17;2.20;;;10.40;99.90;;;;;;5022195;28;20236;-63
2022/09/16 05:31:24;;;;;;;4.87;2.50;;;10.40;99.90;;;;;;5028296;28;20221;-62
2022/09/16 05:34:04;;;;;;;4.17;2.37;;;10.50;99.90;;;;;;5012193;28;20183;-63
2022/09/16 05:36:32;;;;;;;3.47;2.80;;;10.40;99.90;;;;;;5026969;28;20195;-62
2022/09/16 05:38:58;;;;;;;6.97;2.97;;;10.50;99.90;;;;;;5032063;28;20269;-62
2022/09/16 05:41:24;;;;;;;4.23;2.40;;;10.50;99.90;;;;;;5015701;28;20686;-63
2022/09/16 05:43:50;;;;;;;3.97;2.50;;;10.50;99.90;;;;;;5034821;28;20224;-64
2022/09/16 05:46:21;;;;;;;3.63;2.47;;;10.60;99.90;;;;;;5025956;28;20693;-63
2022/09/16 05:48:47;;;;;;;9.43;2.50;;;10.60;99.90;;;;;;5037843;28;20199;-63
2022/09/16 05:51:15;;;;;;;5.67;2.20;;;10.60;99.90;;;;;;5018519;28;20246;-63
2022/09/16 05:53:41;;;;;;;5.83;2.40;;;10.60;99.90;;;;;;5046536;28;20216;-63
2022/09/16 05:56:10;;;;;;;5.47;2.10;;;10.60;99.90;;;;;;5027687;28;20209;-63
2022/09/16 05:58:36;;;;;;;4.83;2.50;;;10.60;99.90;;;;;;5042686;28;20192;-63
2022/09/16 06:01:04;;;;;;;3.13;1.67;;;10.70;99.90;;;;;;5028124;28;20208;-63
2022/09/16 06:03:31;;;;;;;3.83;2.03;;;10.70;99.90;;;;;;5031950;28;20192;-63
2022/09/16 06:06:05;;;;;;;8.07;2.37;;;10.70;99.90;;;;;;5026795;28;20214;-64
2022/09/16 06:08:33;;;;;;;4.20;2.00;;;10.80;99.90;;;;;;5017465;28;20195;-63
2022/09/16 06:11:03;;;;;;;2.93;1.90;;;10.90;99.90;;;;;;5024013;28;20225;-63
2022/09/16 06:13:29;;;;;;;4.17;2.23;;;11.00;99.90;;;;;;5039491;28;20200;-63
2022/09/16 06:15:54;;;;;;;7.70;2.70;;;11.10;99.90;;;;;;5028819;28;20217;-63
2022/09/16 06:18:21;;;;;;;4.73;1.83;;;11.20;99.90;;;;;;5044873;28;20684;-63
2022/09/16 06:20:48;;;;;;;2.53;2.23;;;11.30;99.90;;;;;;5030250;28;20214;-63
2022/09/16 06:23:14;;;;;;;7.23;2.97;;;11.40;99.90;;;;;;5037476;28;20212;-63
2022/09/16 06:25:39;;;;;;;3.93;2.20;;;11.40;99.90;;;;;;5041461;28;20553;-63
2022/09/16 06:28:05;;;;;;;2.93;2.07;;;11.40;99.90;;;;;;5034567;28;20189;-63
2022/09/16 06:30:31;;;;;;;5.27;2.00;;;11.30;99.90;;;;;;5024002;28;20656;-63
2022/09/16 06:32:56;;;;;;;7.10;2.13;;;11.30;99.90;;;;;;5037665;28;20193;-64
2022/09/16 06:35:22;;;;;;;6.30;1.80;;;11.40;99.90;;;;;;5030244;28;20205;-63
2022/09/16 06:37:47;;;;;;;4.07;2.00;;;11.50;99.90;;;;;;5040651;28;20802;-63
2022/09/16 06:40:13;;;;;;;7.03;2.40;;;11.50;99.90;;;;;;5035087;28;20205;-63
2022/09/16 06:42:38;;;;;;;4.07;2.13;;;11.70;99.90;;;;;;5036870;28;20244;-63
2022/09/16 06:45:05;;;;;;;5.70;2.37;;;11.80;99.90;;;;;;5030691;28;20217;-64
2022/09/16 06:47:32;;;;;;;4.50;2.40;;;11.90;99.90;;;;;;5025995;28;20198;-63
2022/09/16 06:49:58;;;;;;;6.40;2.10;;;12.00;99.90;;;;;;5025051;28;20234;-63
2022/09/16 06:52:24;;;;;;;2.13;1.90;;;12.10;99.90;;;;;;5016345;28;20328;-63
2022/09/16 06:54:49;;;;;;;2.87;2.27;;;12.10;99.90;;;;;;5029854;28;20648;-64
2022/09/16 06:57:17;;;;;;;4.83;2.33;;;12.20;99.90;;;;;;5019057;28;20653;-64
2022/09/16 06:59:42;;;;;;;3.33;2.17;;;12.40;99.90;;;;;;5030720;28;20200;-62
2022/09/16 07:02:10;;;;;;;4.60;2.10;;;12.50;99.90;;;;;;5022451;28;20767;-64
2022/09/16 07:04:35;;;;;;;2.80;1.83;;;12.50;99.90;;;;;;5038909;28;20282;-63
2022/09/16 07:07:01;;;;;;;4.17;2.70;;;12.50;99.90;;;;;;5025316;28;20261;-64
2022/09/16 07:09:26;;;;;;;3.80;1.97;;;12.60;99.90;;;;;;5032996;28;20207;-63
2022/09/16 07:11:52;;;;;;;4.70;1.53;;;12.50;99.90;;;;;;5020537;28;20214;-64
2022/09/16 07:14:17;;;;;;;3.83;2.23;;;12.40;99.90;;;;;;5029570;28;20189;-64
2022/09/16 07:16:42;;;;;;;6.80;2.27;;;12.40;99.90;;;;;;5015876;28;20206;-65
2022/09/16 07:19:09;;;;;;;2.30;1.43;;;12.30;99.90;;;;;;5032303;28;20276;-64
2022/09/16 07:21:34;;;;;;;2.50;1.27;;;12.30;99.90;;;;;;5024354;28;20451;-63
2022/09/16 07:24:02;;;;;;;3.00;1.57;;;12.40;99.90;;;;;;5029831;28;20732;-65
2022/09/16 07:26:30;;;;;;;4.20;1.80;;;12.50;99.90;;;;;;5023092;28;20203;-65
2022/09/16 07:28:58;;;;;;;2.30;1.80;;;12.60;99.90;;;;;;5030698;28;20617;-65
2022/09/16 07:31:26;;;;;;;4.97;2.00;;;12.60;99.90;;;;;;5020736;28;20792;-65
2022/09/16 07:33:54;;;;;;;4.20;1.30;;;12.70;99.90;;;;;;5034982;28;20199;-65
2022/09/16 07:36:22;;;;;;;3.37;1.50;;;12.80;99.90;;;;;;5022261;28;20327;-65
2022/09/16 07:38:48;;;;;;;2.07;1.20;;;13.00;99.90;;;;;;5035864;28;20654;-65
2022/09/16 07:41:17;;;;;;;5.33;1.57;;;13.10;99.90;;;;;;5027757;28;20220;-65
2022/09/16 07:43:43;;;;;;;2.10;1.57;;;13.10;99.90;;;;;;5035247;28;20709;-65
2022/09/16 07:46:10;;;;;;;5.70;1.73;;;13.10;99.90;;;;;;5024781;28;20207;-65
2022/09/16 07:48:36;;;;;;;2.40;1.33;;;13.20;99.90;;;;;;5036824;28;20684;-64
2022/09/16 07:51:12;;;;;;;2.37;1.20;;;13.30;99.90;;;;;;5028855;28;20254;-63
2022/09/16 07:53:38;;;;;;;3.00;1.47;;;13.50;99.90;;;;;;5008284;28;20699;-65
2022/09/16 07:56:12;;;;;;;3.20;1.17;;;13.60;99.90;;;;;;5029113;28;20203;-66
2022/09/16 07:58:38;;;;;;;5.93;1.60;;;13.60;99.90;;;;;;5024739;28;20192;-66
2022/09/16 08:01:04;;;;;;;2.93;1.50;;;13.60;99.90;;;;;;5029152;28;20213;-66
2022/09/16 08:03:31;;;;;;;3.23;1.00;;;13.80;99.90;;;;;;5029319;28;20246;-66
2022/09/16 08:06:02;;;;;;;2.40;0.80;;;13.90;99.90;;;;;;5024325;28;20211;-65
2022/09/16 08:08:28;;;;;;;1.10;1.00;;;14.00;99.90;;;;;;5034419;28;20238;-66
2022/09/16 08:10:54;;;;;;;3.10;1.20;;;14.00;99.90;;;;;;5028636;28;20813;-66
2022/09/16 08:13:20;;;;;;;1.93;0.90;;;14.00;99.90;;;;;;5044691;28;20834;-64
2022/09/16 08:15:46;;;;;;;1.53;1.00;;;14.10;99.90;;;;;;5022072;28;20214;-65
2022/09/16 08:18:11;;;;;;;2.10;1.03;;;14.30;99.90;;;;;;5031554;28;20203;-63
2022/09/16 08:20:37;;;;;;;4.00;1.20;;;14.40;99.90;;;;;;5033326;28;20551;-63
2022/09/16 08:23:02;;;;;;;5.30;1.20;;;14.40;99.90;;;;;;5024785;28;20237;-63
2022/09/16 08:25:28;;;;;;;3.37;1.30;;;14.30;99.90;;;;;;5033872;28;20204;-61
2022/09/16 08:27:53;;;;;;;2.70;1.10;;;14.30;99.90;;;;;;5029913;28;20191;-62
2022/09/16 08:30:19;;;;;;;4.63;1.60;;;14.30;99.90;;;;;;5024573;28;20198;-60
2022/09/16 08:32:44;;;;;;;1.30;1.07;;;14.30;99.90;;;;;;5024395;28;20243;-66
2022/09/16 08:35:10;;;;;;;2.40;1.40;;;14.30;99.90;;;;;;5029914;28;20207;-64
2022/09/16 08:37:35;;;;;;;2.17;1.07;;;14.20;99.90;;;;;;5017177;28;20241;-65
2022/09/16 08:40:04;;;;;;;3.17;1.23;;;14.20;99.90;;;;;;5029954;28;20197;-65
2022/09/16 08:42:41;;;;;;;5.23;1.27;;;14.40;99.90;;;;;;5020420;28;20249;-64
2022/09/16 08:45:38;;;;;;;6.63;1.60;;;14.40;99.90;;;;;;5005899;28;20217;-65
2022/09/16 08:48:26;;;;;;;1.30;1.00;;;14.30;99.90;;;;;;5007244;28;20689;-65
2022/09/16 08:50:52;;;;;;;2.87;1.10;;;14.20;99.90;;;;;;5015565;28;20756;-65
2022/09/16 08:53:39;;;;;;;2.70;1.10;;;14.40;99.90;;;;;;5042265;28;20199;-65
2022/09/16 08:56:12;;;;;;;1.63;1.10;;;14.60;99.90;;;;;;5013704;28;20209;-65
2022/09/16 08:58:42;;;;;;;3.10;1.40;;;14.70;99.90;;;;;;5023447;28;20245;-65
2022/09/16 09:01:46;;;;;;;7.20;1.30;;;14.80;99.90;;;;;;5026937;28;20213;-65
2022/09/16 09:04:12;;;;;;;3.47;1.10;;;14.80;99.90;;;;;;5031885;28;20633;-65
2022/09/16 09:06:55;;;;;;;7.80;1.40;;;15.00;99.90;;;;;;5021599;28;20216;-65
2022/09/16 09:09:26;;;;;;;7.83;1.47;;;15.10;99.90;;;;;;5021177;28;20187;-66
2022/09/16 09:12:28;;;;;;;5.53;1.10;;;15.10;99.90;;;;;;5019626;28;20213;-65
2022/09/16 09:15:35;;;;;;;2.57;1.33;;;15.20;99.90;;;;;;5028196;28;20207;-66
2022/09/16 09:18:25;;;;;;;4.10;1.10;;;15.30;99.90;;;;;;5025609;28;20673;-65
2022/09/16 09:21:30;;;;;;;2.67;1.30;;;15.40;99.90;;;;;;5030344;28;20204;-65
2022/09/16 09:24:17;;;;;;;4.23;1.00;;;15.40;99.90;;;;;;5024586;28;20720;-65
2022/09/16 09:26:59;;;;;;;2.63;1.07;;;15.30;99.90;;;;;;4977879;28;20283;-66
2022/09/16 09:29:56;;;;;;;3.53;1.10;;;15.40;99.90;;;;;;5025046;28;20187;-65
2022/09/16 09:32:46;;;;;;;3.23;1.00;;;15.30;99.90;;;;;;5024056;28;20239;-65
2022/09/16 09:35:36;;;;;;;1.97;1.10;;;15.30;99.90;;;;;;5017640;28;20593;-65
2022/09/16 09:38:09;;;;;;;5.57;1.50;;;15.30;99.90;;;;;;5024508;28;20218;-66
2022/09/16 09:40:45;;;;;;;7.10;1.43;;;15.50;99.90;;;;;;5020820;28;20199;-65
2022/09/16 09:43:22;;;;;;;8.17;1.30;;;15.60;99.90;;;;;;5015409;28;20195;-65
2022/09/16 09:46:01;;;;;;;3.90;1.37;;;15.60;99.90;;;;;;5021454;28;20324;-66
2022/09/16 09:48:37;;;;;;;6.87;1.30;;;15.50;99.90;;;;;;5025174;28;20225;-65
2022/09/16 09:51:30;;;;;;;7.90;1.20;;;15.50;99.90;;;;;;5014240;28;20329;-66
2022/09/16 09:54:01;;;;;;;7.00;1.40;;;15.40;99.90;;;;;;5012727;28;20190;-66
2022/09/16 09:56:43;;;;;;;4.43;1.47;;;15.40;99.90;;;;;;5018788;28;20261;-66
2022/09/16 09:59:24;;;;;;;3.90;2.07;;;15.60;99.90;;;;;;5026146;28;20221;-66
2022/09/16 10:01:55;;;;;;;6.87;1.87;;;15.50;99.60;;;;;;5015910;28;20298;-65
2022/09/16 10:04:20;;;;;;;5.47;1.30;;;15.30;99.90;;;;;;5027942;28;20477;-65
2022/09/16 10:06:47;;;;;;;2.73;1.03;;;15.20;99.90;;;;;;5022346;28;20566;-66
2022/09/16 10:09:15;;;;;;;2.73;1.00;;;15.40;99.90;;;;;;5037687;28;20270;-66
2022/09/16 10:11:53;;;;;;;4.23;1.50;;;15.70;99.50;;;;;;5029794;28;20220;-66
2022/09/16 10:14:25;;;;;;;6.90;1.83;;;15.90;98.90;;;;;;5016741;28;20731;-66
2022/09/16 10:16:52;;;;;;;2.20;0.93;;;16.10;99.50;;;;;;5028169;28;20234;-66
2022/09/16 10:19:24;;;;;;;4.93;0.93;;;16.20;99.70;;;;;;5036647;28;20191;-66
2022/09/16 10:21:55;;;;;;;2.90;1.03;;;16.30;99.30;;;;;;5016186;28;20732;-66
2022/09/16 10:24:28;;;;;;;3.50;1.50;;;16.30;98.10;;;;;;5030304;28;20206;-66
2022/09/16 10:26:54;;;;;;;5.73;1.33;;;16.20;98.20;;;;;;5019914;28;20226;-66
2022/09/16 10:29:20;;;;;;;4.37;1.17;;;16.30;98.70;;;;;;5030800;28;20226;-66
2022/09/16 10:31:46;;;;;;;4.97;1.17;;;16.30;98.40;;;;;;5026703;28;20207;-66
2022/09/16 10:34:27;;;;;;;2.80;1.00;;;16.40;98.20;;;;;;5040459;28;20581;-66
2022/09/16 10:37:18;;;;;;;4.40;1.20;;;16.60;97.80;;;;;;5014458;28;20323;-66
2022/09/16 10:39:50;;;;;;;1.90;0.83;;;16.70;96.70;;;;;;5018283;28;20203;-66
2022/09/16 10:42:34;;;;;;;3.63;1.27;;;16.60;96.00;;;;;;5013909;28;20243;-66
2022/09/16 10:45:14;;;;;;;6.93;1.23;;;16.60;96.20;;;;;;5019473;28;20197;-66
2022/09/16 10:47:40;;;;;;;8.10;1.40;;;16.70;96.30;;;;;;5013091;28;20623;-66
2022/09/16 10:50:06;;;;;;;5.77;1.27;;;16.80;96.30;;;;;;5026544;28;20313;-65
2022/09/16 10:52:41;;;;;;;2.13;0.77;;;16.90;96.20;;;;;;5016800;28;20212;-66
2022/09/16 10:55:21;;;;;;;2.90;1.10;;;17.00;96.00;;;;;;5014208;28;20237;-66
2022/09/16 10:57:47;;;;;;;1.40;0.93;;;17.10;95.30;;;;;;5012929;28;20185;-66
2022/09/16 11:00:22;;;;;;;2.40;0.80;;;17.20;95.60;;;;;;5025976;28;20290;-67
2022/09/16 11:03:26;;;;;;;2.63;0.67;;;17.20;95.10;;;;;;5025170;28;20547;-66
2022/09/16 11:06:02;;;;;;;5.00;1.20;;;17.20;95.30;;;;;;5017279;28;20541;-66
2022/09/16 11:08:46;;;;;;;6.53;1.27;;;17.10;94.40;;;;;;5031462;28;20176;-66
2022/09/16 11:11:34;;;;;;;2.47;1.00;;;17.00;94.20;;;;;;5029731;28;20611;-66
2022/09/16 11:14:38;;;;;;;3.70;1.10;;;16.90;93.90;;;;;;5019399;28;20673;-66
2022/09/16 11:17:29;;;;;;;4.30;1.40;;;16.80;93.70;;;;;;5018824;28;20206;-66
2022/09/16 11:20:22;;;;;;;3.17;1.67;;;16.60;93.20;;;;;;5019451;28;20227;-66
2022/09/16 11:22:51;;;;;;;5.60;1.57;;;16.50;93.50;;;;;;5021642;28;20831;-66
2022/09/16 11:25:21;;;;;;;6.57;1.33;;;16.40;94.00;;;;;;5031798;28;20585;-66
2022/09/16 11:28:15;;;;;;;3.30;0.87;;;16.50;93.60;;;;;;5025120;28;20191;-66
2022/09/16 11:31:11;;;;;;;2.93;1.20;;;16.60;93.40;;;;;;5023075;28;20196;-67
2022/09/16 11:33:45;;;;;;;3.27;1.60;;;16.50;93.20;;;;;;5043759;28;20198;-66
2022/09/16 11:36:22;;;;;;;3.57;1.47;;;16.60;92.60;;;;;;5014806;28;20865;-66
2022/09/16 11:39:12;;;;;;;2.53;0.83;;;16.60;92.70;;;;;;5027236;28;20195;-66
2022/09/16 11:41:54;;;;;;;3.63;0.87;;;16.80;93.80;;;;;;5011944;28;20231;-66
2022/09/16 11:44:28;;;;;;;3.43;1.13;;;17.30;92.40;;;;;;5013425;28;20222;-66
2022/09/16 11:47:18;;;;;;;2.83;1.30;;;17.50;91.80;;;;;;5016738;28;20567;-66
2022/09/16 11:50:03;;;;;;;4.37;1.17;;;17.20;91.70;;;;;;5023673;28;20230;-66
2022/09/16 11:53:06;;;;;;;1.30;0.63;;;16.80;91.60;;;;;;5017954;28;20220;-66
2022/09/16 11:55:44;;;;;;;2.67;1.03;;;17.00;91.90;;;;;;5028584;28;20248;-66
2022/09/16 11:58:36;;;;;;;6.00;1.23;;;17.50;91.70;;;;;;5024390;28;20190;-66
2022/09/16 12:01:35;;;;;;;1.80;0.70;;;17.30;91.80;;;;;;5009340;28;20203;-66
2022/09/16 12:04:24;;;;;;;1.90;0.60;;;16.90;92.40;;;;;;4999842;28;20293;-67
2022/09/16 12:06:57;;;;;;;3.93;1.00;;;17.30;92.10;;;;;;5028283;28;20908;-66
2022/09/16 12:09:40;;;;;;;4.80;1.10;;;17.80;91.50;;;;;;5030556;28;20210;-67
2022/09/16 12:12:12;;;;;;;4.10;1.57;;;18.40;91.20;;;;;;5016776;28;20251;-66
2022/09/16 12:14:44;;;;;;;2.10;0.90;;;19.20;90.50;;;;;;5024446;28;20192;-66
2022/09/16 12:17:18;;;;;;;1.90;0.70;;;19.90;85.20;;;;;;5017575;28;20226;-66
2022/09/16 12:19:56;;;;;;;3.53;1.57;;;20.20;81.90;;;;;;5012447;28;20768;-66
2022/09/16 12:22:32;;;;;;;1.20;0.87;;;20.50;77.50;;;;;;5014482;28;20212;-66
2022/09/16 12:25:07;;;;;;;3.10;1.00;;;20.90;76.20;;;;;;5019888;28;20283;-66
2022/09/16 12:28:01;;;;;;;2.57;0.90;;;21.10;74.20;;;;;;5017770;28;20209;-66
2022/09/16 12:30:34;;;;;;;1.13;0.70;;;20.40;72.60;;;;;;5031190;28;20202;-66
2022/09/16 12:33:20;;;;;;;1.33;0.77;;;19.50;74.60;;;;;;5017865;28;20270;-67
2022/09/16 12:36:01;;;;;;;5.37;1.20;;;18.60;76.30;;;;;;5005546;28;20212;-66
2022/09/16 12:38:26;;;;;;;1.43;0.80;;;18.10;78.50;;;;;;5018550;28;20180;-65
2022/09/16 12:41:01;;;;;;;1.80;0.80;;;18.00;80.60;;;;;;5031135;28;20203;-63
2022/09/16 12:43:53;;;;;;;4.80;1.20;;;17.90;82.30;;;;;;5024221;28;20183;-62
2022/09/16 12:46:52;;;;;;;5.93;1.00;;;17.90;82.00;;;;;;5014688;28;20191;-63
2022/09/16 12:49:27;;;;;;;3.13;1.00;;;17.90;80.90;;;;;;5018846;28;20180;-62
2022/09/16 12:52:17;;;;;;;2.17;1.10;;;18.80;80.10;;;;;;5016418;28;20230;-61
2022/09/16 12:54:58;;;;;;;2.10;0.60;;;19.20;78.40;;;;;;5020350;28;20216;-64
2022/09/16 12:58:03;;;;;;;3.67;1.10;;;19.70;74.00;;;;;;5029240;28;20268;-64
2022/09/16 13:00:40;;;;;;;2.03;1.00;;;20.60;73.20;;;;;;5022179;28;20188;-62
2022/09/16 13:03:14;;;;;;;3.33;0.80;;;20.80;70.70;;;;;;5021132;28;20188;-63
2022/09/16 13:05:45;;;;;;;2.60;1.13;;;20.80;71.10;;;;;;5017691;28;20197;-62
2022/09/16 13:08:26;;;;;;;3.43;1.53;;;20.90;69.90;;;;;;5019810;28;20253;-62
2022/09/16 13:11:00;;;;;;;2.83;1.00;;;21.40;70.70;;;;;;5008749;28;20204;-62
2022/09/16 13:13:38;;;;;;;4.53;2.53;;;22.00;67.30;;;;;;5013988;28;20201;-62
2022/09/16 13:16:06;;;;;;;4.73;1.10;;;22.40;64.80;;;;;;5016856;28;20266;-62
2022/09/16 13:18:48;;;;;;;3.20;0.97;;;21.90;63.20;;;;;;5037292;28;20192;-62
2022/09/16 13:21:27;;;;;;;2.43;1.10;;;21.80;64.00;;;;;;5029304;28;20212;-62